Time;durP1;ratioP1;P1;durP2;ratioP2;P2;SDS_P1;SDS_P2;PMS_P1;PMS_P2;Temp;Humidity;BMP_temperature;BMP_pressure;BME280_temperature;BME280_humidity;BME280_pressure;Samples;Min_cycle;Max_cycle;Signal;HPM_P1;HPM_P2
2021/05/10 00:00:06;;;;;;;2.00;1.60;;;16.90;67.80;;;;;;5093224;28;20099;-43
2021/05/10 00:02:32;;;;;;;2.20;1.70;;;16.90;67.50;;;;;;5089264;28;20036;-40
2021/05/10 00:04:57;;;;;;;3.08;1.80;;;16.90;67.40;;;;;;5092923;28;20039;-43
2021/05/10 00:07:23;;;;;;;3.25;1.67;;;16.90;67.40;;;;;;5094052;28;20024;-41
2021/05/10 00:09:49;;;;;;;3.90;2.08;;;17.00;67.40;;;;;;5092658;28;20097;-41
2021/05/10 00:12:14;;;;;;;2.75;1.77;;;16.90;67.30;;;;;;5093861;28;20024;-41
2021/05/10 00:14:43;;;;;;;6.32;1.63;;;16.80;67.50;;;;;;5093797;28;20495;-39
2021/05/10 00:17:08;;;;;;;2.17;1.42;;;16.70;67.90;;;;;;5093717;28;20028;-39
2021/05/10 00:19:34;;;;;;;1.88;1.17;;;16.60;68.10;;;;;;5093634;28;20023;-40
2021/05/10 00:22:00;;;;;;;1.23;1.10;;;16.50;68.20;;;;;;5093610;28;20430;-40
2021/05/10 00:24:26;;;;;;;3.67;1.50;;;16.30;68.60;;;;;;5092434;28;20027;-40
2021/05/10 00:26:51;;;;;;;2.78;1.58;;;16.20;68.90;;;;;;5093551;28;20028;-39
2021/05/10 00:29:18;;;;;;;1.30;1.15;;;16.20;68.90;;;;;;5093638;28;20020;-39
2021/05/10 00:31:45;;;;;;;3.00;1.33;;;16.10;69.10;;;;;;5093436;28;20031;-40
2021/05/10 00:34:11;;;;;;;1.63;0.90;;;16.00;69.30;;;;;;5093258;28;20061;-40
2021/05/10 00:36:36;;;;;;;1.85;1.13;;;15.90;69.50;;;;;;5093395;28;20016;-43
2021/05/10 00:39:04;;;;;;;2.35;1.42;;;15.80;69.70;;;;;;5092003;28;20487;-41
2021/05/10 00:41:29;;;;;;;2.05;1.05;;;15.80;70.00;;;;;;5093087;28;20035;-40
2021/05/10 00:43:54;;;;;;;1.30;1.20;;;15.80;69.80;;;;;;5093266;28;20020;-43
2021/05/10 00:46:20;;;;;;;3.13;1.17;;;15.80;69.70;;;;;;5092994;28;20035;-45
2021/05/10 00:48:45;;;;;;;3.47;1.48;;;15.70;69.70;;;;;;5092972;28;20016;-45
2021/05/10 00:51:11;;;;;;;2.95;1.00;;;15.60;70.60;;;;;;5099349;28;20036;-40
2021/05/10 00:53:36;;;;;;;2.17;1.20;;;15.60;70.40;;;;;;5112172;28;20028;-39
2021/05/10 00:56:02;;;;;;;5.50;1.60;;;15.60;70.00;;;;;;5113342;28;20028;-40
2021/05/10 00:58:28;;;;;;;1.40;1.30;;;15.50;70.20;;;;;;5113392;28;20024;-40
2021/05/10 01:00:53;;;;;;;1.40;1.20;;;15.50;70.10;;;;;;5113288;28;20446;-41
2021/05/10 01:03:19;;;;;;;1.40;1.17;;;15.40;70.80;;;;;;5113128;28;20066;-40
2021/05/10 01:05:46;;;;;;;1.20;1.10;;;15.30;70.30;;;;;;5112924;28;20479;-39
2021/05/10 01:08:11;;;;;;;2.55;1.40;;;15.30;70.50;;;;;;5112176;28;20094;-39
2021/05/10 01:10:37;;;;;;;2.38;1.30;;;15.30;70.30;;;;;;5113156;28;20099;-40
2021/05/10 01:13:03;;;;;;;3.05;1.15;;;15.30;70.20;;;;;;5113343;28;20048;-41
2021/05/10 01:15:32;;;;;;;2.25;1.40;;;15.30;70.30;;;;;;5113172;28;20035;-40
2021/05/10 01:17:58;;;;;;;1.88;1.52;;;15.30;70.30;;;;;;5113151;28;20102;-39
2021/05/10 01:20:24;;;;;;;1.00;0.90;;;15.40;70.00;;;;;;5113080;28;20035;-42
2021/05/10 01:22:54;;;;;;;9.02;1.70;;;15.30;70.00;;;;;;5112916;28;20088;-41
2021/05/10 01:25:26;;;;;;;1.55;1.00;;;15.30;70.00;;;;;;5112558;28;20023;-41
2021/05/10 01:27:52;;;;;;;2.20;0.93;;;15.30;70.00;;;;;;5113040;28;20035;-39
2021/05/10 01:30:21;;;;;;;2.28;1.45;;;15.30;69.90;;;;;;5113150;28;20459;-40
2021/05/10 01:32:48;;;;;;;4.32;1.20;;;15.30;70.00;;;;;;5112666;28;20110;-41
2021/05/10 01:35:16;;;;;;;1.50;1.20;;;15.20;70.00;;;;;;5112931;28;20020;-39
2021/05/10 01:37:42;;;;;;;2.65;1.10;;;15.20;70.10;;;;;;5112818;28;20110;-40
2021/05/10 01:40:09;;;;;;;1.33;0.90;;;15.20;69.90;;;;;;5111727;28;20111;-39
2021/05/10 01:42:34;;;;;;;3.50;1.23;;;15.30;69.90;;;;;;5109255;28;20160;-41
2021/05/10 01:45:00;;;;;;;1.50;1.10;;;15.30;69.90;;;;;;5092410;28;20106;-40
2021/05/10 01:47:26;;;;;;;2.33;1.30;;;15.20;70.00;;;;;;5092403;28;20360;-39
2021/05/10 01:49:51;;;;;;;4.65;1.23;;;15.20;69.90;;;;;;5092300;28;20024;-42
2021/05/10 01:52:17;;;;;;;2.90;1.20;;;15.20;69.80;;;;;;5111204;28;20032;-45
2021/05/10 01:54:51;;;;;;;4.45;1.23;;;15.20;69.70;;;;;;5115660;28;20099;-40
2021/05/10 01:57:18;;;;;;;4.03;1.13;;;15.20;69.70;;;;;;5116951;28;20030;-45
2021/05/10 01:59:44;;;;;;;2.08;1.30;;;15.20;69.50;;;;;;5116759;28;20023;-41
2021/05/10 02:02:10;;;;;;;1.33;1.17;;;15.30;69.40;;;;;;5116892;28;20497;-44
2021/05/10 02:05:03;;;;;;;2.17;1.17;;;15.20;69.50;;;;;;5116613;27;20038;-40
2021/05/10 02:07:29;;;;;;;6.78;1.30;;;15.10;69.70;;;;;;5116683;28;20592;-40
2021/05/10 02:09:54;;;;;;;4.03;1.40;;;15.10;69.70;;;;;;5115360;28;20103;-39
2021/05/10 02:12:20;;;;;;;4.13;1.58;;;15.10;69.70;;;;;;5116400;28;20058;-39
2021/05/10 02:14:45;;;;;;;3.45;1.30;;;15.00;69.70;;;;;;5116566;28;20088;-40
2021/05/10 02:17:11;;;;;;;4.20;1.00;;;15.00;69.70;;;;;;5116492;28;20051;-41
2021/05/10 02:19:36;;;;;;;1.02;0.85;;;14.90;69.70;;;;;;5116482;28;20035;-40
2021/05/10 02:22:02;;;;;;;2.58;1.30;;;14.90;69.70;;;;;;5116208;28;20042;-39
2021/05/10 02:24:27;;;;;;;3.95;1.30;;;14.90;69.80;;;;;;5115030;28;20031;-39
2021/05/10 02:26:52;;;;;;;5.82;1.20;;;14.90;69.80;;;;;;5116060;28;20026;-42
2021/05/10 02:29:18;;;;;;;2.70;1.40;;;14.80;69.80;;;;;;5116385;28;20024;-39
2021/05/10 02:31:46;;;;;;;1.83;1.20;;;14.90;69.60;;;;;;5116079;28;20023;-39
2021/05/10 02:34:11;;;;;;;2.15;1.20;;;14.90;69.50;;;;;;5116348;28;20499;-39
2021/05/10 02:36:37;;;;;;;1.13;0.88;;;14.80;69.60;;;;;;5116027;28;20032;-39
2021/05/10 02:39:03;;;;;;;0.90;0.82;;;14.70;69.50;;;;;;5114764;28;20063;-39
2021/05/10 02:41:28;;;;;;;1.52;0.90;;;14.70;69.70;;;;;;5115882;28;20036;-40
2021/05/10 02:43:54;;;;;;;1.70;1.10;;;14.60;69.80;;;;;;5104594;28;20021;-41
2021/05/10 02:46:19;;;;;;;1.90;1.02;;;14.50;69.90;;;;;;5095494;28;20032;-39
2021/05/10 02:48:45;;;;;;;2.25;1.10;;;14.40;70.10;;;;;;5095641;28;20096;-39
2021/05/10 02:51:10;;;;;;;1.88;1.17;;;14.40;70.30;;;;;;5101341;28;20080;-39
2021/05/10 02:53:36;;;;;;;2.30;1.00;;;14.40;70.40;;;;;;5114692;28;20024;-39
2021/05/10 02:56:02;;;;;;;1.98;1.02;;;14.30;70.50;;;;;;5115528;28;20133;-39
2021/05/10 02:58:27;;;;;;;1.75;0.85;;;14.20;70.80;;;;;;5115757;28;20049;-41
2021/05/10 03:00:53;;;;;;;2.20;0.90;;;14.10;71.30;;;;;;5115730;28;20382;-40
2021/05/10 03:03:18;;;;;;;1.20;1.10;;;14.00;71.60;;;;;;5114273;28;20096;-39
2021/05/10 03:05:44;;;;;;;1.83;1.00;;;13.90;71.60;;;;;;5115580;28;20024;-39
2021/05/10 03:08:09;;;;;;;1.50;0.80;;;13.80;71.90;;;;;;5114192;28;20030;-39
2021/05/10 03:10:35;;;;;;;3.30;1.00;;;13.70;72.70;;;;;;5115530;28;20463;-39
2021/05/10 03:13:00;;;;;;;1.05;0.80;;;13.50;73.30;;;;;;5115229;28;20035;-40
2021/05/10 03:15:26;;;;;;;4.38;1.13;;;13.30;73.70;;;;;;5115501;28;20031;-38
2021/05/10 03:17:52;;;;;;;1.88;1.02;;;13.30;74.30;;;;;;5115211;28;20023;-38
2021/05/10 03:20:21;;;;;;;3.22;1.10;;;13.20;74.70;;;;;;5115504;28;20034;-39
2021/05/10 03:22:51;;;;;;;3.53;1.00;;;13.20;74.90;;;;;;5114982;28;20030;-39
2021/05/10 03:25:17;;;;;;;2.78;1.27;;;13.10;75.40;;;;;;5114371;28;20027;-39
2021/05/10 03:27:42;;;;;;;5.47;1.30;;;13.10;75.80;;;;;;5115233;28;20365;-40
2021/05/10 03:30:12;;;;;;;4.28;1.10;;;13.10;75.60;;;;;;5115122;28;20107;-39
2021/05/10 03:32:39;;;;;;;2.47;1.30;;;13.10;75.70;;;;;;5115022;28;20502;-39
2021/05/10 03:35:07;;;;;;;2.70;1.25;;;13.10;75.80;;;;;;5115099;28;20118;-39
2021/05/10 03:37:32;;;;;;;1.50;1.15;;;13.10;75.70;;;;;;5114887;28;20093;-41
2021/05/10 03:39:59;;;;;;;1.58;1.38;;;13.00;75.70;;;;;;5113591;28;20062;-39
2021/05/10 03:42:25;;;;;;;1.83;1.25;;;13.10;75.70;;;;;;5114773;28;20024;-40
2021/05/10 03:44:50;;;;;;;2.15;1.08;;;13.10;76.20;;;;;;5095588;28;20028;-39
2021/05/10 03:47:16;;;;;;;1.65;1.15;;;13.00;76.20;;;;;;5094156;28;20031;-39
2021/05/10 03:49:41;;;;;;;2.35;1.10;;;13.00;76.60;;;;;;5094436;28;20082;-40
2021/05/10 03:52:08;;;;;;;3.35;1.00;;;12.80;77.00;;;;;;5108044;28;20048;-38
2021/05/10 03:54:33;;;;;;;4.63;1.20;;;12.70;77.50;;;;;;5113565;28;20026;-39
2021/05/10 03:56:59;;;;;;;3.80;1.67;;;12.60;77.70;;;;;;5114541;28;20027;-39
2021/05/10 03:59:25;;;;;;;4.60;1.85;;;12.60;78.40;;;;;;5114768;28;20024;-39
2021/05/10 04:01:51;;;;;;;1.27;1.08;;;12.60;79.00;;;;;;5114704;28;20023;-38
2021/05/10 04:04:20;;;;;;;1.58;1.27;;;12.60;79.30;;;;;;5106315;28;20383;-40
2021/05/10 04:09:43;;;;;;;4.80;1.23;;;14.10;76.90;;;;;;5093250;28;20034;-39
2021/05/10 04:14:54;;;;;;;3.10;1.25;;;17.20;69.30;;;;;;5093180;28;20054;-39
2021/05/10 04:17:19;;;;;;;4.15;1.40;;;18.60;66.20;;;;;;5093688;28;20032;-40
2021/05/10 04:19:44;;;;;;;3.03;1.10;;;19.50;64.00;;;;;;5093608;28;20499;-39
2021/05/10 04:22:12;;;;;;;1.27;1.15;;;20.40;62.40;;;;;;5090444;28;20127;-40
2021/05/10 04:24:37;;;;;;;1.15;1.05;;;21.30;60.20;;;;;;5092457;28;20038;-41
2021/05/10 04:27:05;;;;;;;2.15;1.05;;;22.10;59.40;;;;;;5093283;28;20458;-40
2021/05/10 04:29:30;;;;;;;1.83;1.20;;;22.80;58.20;;;;;;5093200;28;20386;-40
2021/05/10 04:31:56;;;;;;;1.17;1.00;;;23.40;57.20;;;;;;5093571;28;20031;-40
2021/05/10 04:34:21;;;;;;;3.15;1.30;;;24.10;56.20;;;;;;5093138;28;20136;-42
2021/05/10 04:36:47;;;;;;;2.38;1.20;;;24.60;55.40;;;;;;5093400;28;20028;-40
2021/05/10 04:39:12;;;;;;;1.55;1.42;;;25.00;53.20;;;;;;5092188;28;20104;-40
2021/05/10 04:41:38;;;;;;;1.58;1.10;;;25.40;53.40;;;;;;5093178;28;20038;-40
2021/05/10 04:44:04;;;;;;;2.17;1.30;;;25.80;52.80;;;;;;5092868;28;20077;-40
2021/05/10 04:46:29;;;;;;;1.73;1.05;;;26.20;52.20;;;;;;5093006;28;20032;-40
2021/05/10 04:48:55;;;;;;;1.73;1.15;;;26.40;51.00;;;;;;5092926;28;20494;-39
2021/05/10 04:51:20;;;;;;;1.42;1.30;;;26.70;50.70;;;;;;5100456;28;20514;-41
2021/05/10 04:53:46;;;;;;;2.00;1.10;;;27.00;49.60;;;;;;5112405;28;20491;-41
2021/05/10 04:56:11;;;;;;;4.78;1.40;;;27.20;49.10;;;;;;5113177;28;20375;-40
2021/05/10 04:58:37;;;;;;;2.25;1.40;;;27.20;48.20;;;;;;5113502;28;20020;-40
2021/05/10 05:01:02;;;;;;;1.60;1.48;;;27.40;48.00;;;;;;5113455;28;20386;-41
2021/05/10 05:03:28;;;;;;;3.90;1.33;;;27.40;47.20;;;;;;5113213;28;20051;-40
2021/05/10 05:05:53;;;;;;;1.85;1.08;;;27.80;46.90;;;;;;5113500;28;20374;-41
2021/05/10 05:08:19;;;;;;;2.00;1.40;;;28.00;46.50;;;;;;5112214;28;20030;-40
2021/05/10 05:10:44;;;;;;;2.13;1.33;;;28.40;45.80;;;;;;5113406;28;20031;-41
2021/05/10 05:13:23;;;;;;;2.10;1.17;;;28.70;46.40;;;;;;5113147;28;20038;-41
2021/05/10 05:15:49;;;;;;;1.90;1.30;;;29.00;43.50;;;;;;5113228;28;20073;-45
2021/05/10 05:18:15;;;;;;;2.83;1.10;;;29.40;44.60;;;;;;5113086;28;20036;-41
2021/05/10 05:20:40;;;;;;;1.60;1.23;;;29.60;43.70;;;;;;5113204;28;20023;-47
2021/05/10 05:23:22;;;;;;;1.65;1.42;;;29.70;42.10;;;;;;5111758;28;20164;-45
2021/05/10 05:25:57;;;;;;;1.45;1.35;;;29.60;40.20;;;;;;5112032;28;20110;-47
2021/05/10 05:28:24;;;;;;;1.75;1.20;;;29.30;41.20;;;;;;5112733;28;20539;-44
2021/05/10 05:30:50;;;;;;;2.72;1.40;;;29.00;42.60;;;;;;5113164;28;20039;-47
2021/05/10 05:33:16;;;;;;;2.92;1.52;;;29.40;42.40;;;;;;5111579;28;20099;-45
2021/05/10 05:35:41;;;;;;;3.45;1.58;;;29.40;41.60;;;;;;5113081;28;20039;-46
2021/05/10 05:38:10;;;;;;;4.35;2.08;;;29.40;41.60;;;;;;5111532;28;20415;-46
2021/05/10 05:40:36;;;;;;;1.83;1.30;;;29.50;41.30;;;;;;5112901;28;20051;-46
2021/05/10 05:43:02;;;;;;;1.85;1.40;;;30.00;41.30;;;;;;5103270;28;20365;-44
2021/05/10 05:45:27;;;;;;;3.63;1.40;;;29.90;41.00;;;;;;5072268;28;20048;-44
2021/05/10 05:47:53;;;;;;;4.40;1.58;;;30.00;40.90;;;;;;5072357;28;20100;-41
2021/05/10 05:50:18;;;;;;;3.97;1.67;;;29.80;41.00;;;;;;5072194;28;20044;-43
2021/05/10 05:52:44;;;;;;;5.03;1.67;;;29.80;40.00;;;;;;5110656;28;20027;-43
2021/05/10 05:55:10;;;;;;;3.33;1.52;;;30.00;39.80;;;;;;5111659;28;20027;-45
2021/05/10 05:57:36;;;;;;;2.38;1.40;;;29.50;40.30;;;;;;5112735;28;20413;-44
2021/05/10 06:00:02;;;;;;;1.83;1.27;;;30.00;40.30;;;;;;5112701;28;20024;-44
2021/05/10 06:02:28;;;;;;;1.40;1.27;;;30.10;40.30;;;;;;5112535;28;20035;-42
2021/05/10 06:04:53;;;;;;;2.08;1.50;;;30.40;40.00;;;;;;5112591;28;20079;-42
2021/05/10 06:07:19;;;;;;;3.38;1.20;;;30.70;39.90;;;;;;5112650;28;20045;-43
2021/05/10 06:09:45;;;;;;;2.30;1.52;;;30.50;39.40;;;;;;5111581;28;20024;-43
2021/05/10 06:12:11;;;;;;;2.15;1.23;;;30.70;39.30;;;;;;5112574;28;20024;-42
2021/05/10 06:14:37;;;;;;;1.42;1.33;;;31.30;39.20;;;;;;5112635;28;20024;-42
2021/05/10 06:17:03;;;;;;;1.73;1.25;;;31.10;38.20;;;;;;5112635;28;20107;-47
2021/05/10 06:19:29;;;;;;;3.28;1.55;;;31.00;38.70;;;;;;5112539;28;20026;-41
2021/05/10 06:21:54;;;;;;;6.35;1.48;;;31.40;38.60;;;;;;5112636;28;20032;-43
2021/05/10 06:24:21;;;;;;;1.88;1.65;;;31.20;38.60;;;;;;5110044;28;20068;-42
2021/05/10 06:26:48;;;;;;;6.50;1.80;;;31.20;38.50;;;;;;5112326;28;20030;-43
2021/05/10 06:29:13;;;;;;;4.88;1.77;;;31.20;37.90;;;;;;5112404;28;20027;-46
2021/05/10 06:31:39;;;;;;;2.17;1.40;;;31.50;38.10;;;;;;5112625;28;20483;-44
2021/05/10 06:34:05;;;;;;;1.50;1.33;;;32.30;37.70;;;;;;5112401;28;20027;-43
2021/05/10 06:36:31;;;;;;;2.88;1.17;;;32.90;37.50;;;;;;5112814;28;20020;-42
2021/05/10 06:38:57;;;;;;;2.38;0.90;;;34.00;37.20;;;;;;5115247;28;20050;-44
2021/05/10 06:41:22;;;;;;;3.88;1.30;;;34.20;36.30;;;;;;5115948;28;20036;-45
2021/05/10 06:43:48;;;;;;;3.08;1.10;;;33.40;36.40;;;;;;5105298;28;20024;-41
2021/05/10 06:46:13;;;;;;;1.50;1.35;;;33.60;36.10;;;;;;5095522;28;20036;-42
2021/05/10 06:48:39;;;;;;;1.65;1.15;;;33.50;35.80;;;;;;5095608;28;20486;-44
2021/05/10 06:51:04;;;;;;;2.95;1.50;;;33.30;36.00;;;;;;5100848;28;20036;-41
2021/05/10 06:53:30;;;;;;;3.78;1.55;;;33.10;36.10;;;;;;5115128;28;20486;-42
2021/05/10 06:55:56;;;;;;;3.25;1.40;;;32.90;35.90;;;;;;5115677;28;20030;-44
2021/05/10 06:58:23;;;;;;;1.00;0.90;;;32.60;36.30;;;;;;5115607;28;20581;-41
2021/05/10 07:00:52;;;;;;;1.88;1.40;;;33.40;36.10;;;;;;5115764;28;20023;-41
2021/05/10 07:03:18;;;;;;;2.60;1.52;;;34.10;35.10;;;;;;5115749;28;20043;-45
2021/05/10 07:05:44;;;;;;;2.15;1.10;;;34.20;34.20;;;;;;5115492;28;20100;-42
2021/05/10 07:08:12;;;;;;;2.90;1.27;;;34.10;34.50;;;;;;5114759;28;20023;-44
2021/05/10 07:10:38;;;;;;;2.08;1.10;;;34.40;34.30;;;;;;5115517;28;20024;-41
2021/05/10 07:13:04;;;;;;;3.90;1.30;;;35.10;34.20;;;;;;5115513;28;20028;-43
2021/05/10 07:15:30;;;;;;;2.25;1.05;;;35.90;33.30;;;;;;5115361;28;20032;-46
2021/05/10 07:18:06;;;;;;;3.75;1.30;;;36.70;33.40;;;;;;5115562;28;20172;-43
2021/05/10 07:20:33;;;;;;;3.35;1.23;;;36.90;31.70;;;;;;5115350;28;20035;-42
2021/05/10 07:22:59;;;;;;;2.72;1.15;;;37.00;31.90;;;;;;5114431;28;20498;-42
2021/05/10 07:25:25;;;;;;;1.85;1.15;;;36.50;31.90;;;;;;5115042;28;20031;-41
2021/05/10 07:27:50;;;;;;;4.43;1.25;;;35.90;31.90;;;;;;5115221;28;20019;-44
2021/05/10 07:30:17;;;;;;;2.78;1.35;;;35.00;32.70;;;;;;5115176;28;20078;-45
2021/05/10 07:32:43;;;;;;;1.92;1.10;;;35.20;32.90;;;;;;5115172;28;20027;-41
2021/05/10 07:35:09;;;;;;;2.67;1.50;;;35.10;32.50;;;;;;5115131;28;20015;-43
2021/05/10 07:37:34;;;;;;;3.15;1.50;;;34.90;32.20;;;;;;5114999;28;20068;-44
2021/05/10 07:40:00;;;;;;;3.58;1.20;;;34.20;32.40;;;;;;5114033;28;20428;-43
2021/05/10 07:42:26;;;;;;;3.33;1.63;;;33.70;32.90;;;;;;5114841;28;20028;-42
2021/05/10 07:44:51;;;;;;;1.58;1.20;;;33.30;32.90;;;;;;5095197;28;20509;-42
2021/05/10 07:47:18;;;;;;;4.50;1.58;;;33.30;33.70;;;;;;5094471;28;20069;-43
2021/05/10 07:49:44;;;;;;;2.85;1.38;;;33.90;33.50;;;;;;5093628;28;20044;-41
2021/05/10 07:52:10;;;;;;;2.50;1.45;;;33.90;33.40;;;;;;5108724;28;20102;-43
2021/05/10 07:54:35;;;;;;;1.60;1.20;;;33.90;33.50;;;;;;5113572;28;20530;-43
2021/05/10 07:57:01;;;;;;;1.55;1.00;;;34.10;33.60;;;;;;5114581;28;20065;-42
2021/05/10 07:59:26;;;;;;;1.95;1.30;;;34.00;33.50;;;;;;5114548;28;20023;-43
2021/05/10 08:01:55;;;;;;;1.38;1.10;;;34.20;33.60;;;;;;5114650;28;20523;-41
2021/05/10 08:04:21;;;;;;;1.85;0.90;;;34.60;33.60;;;;;;5114340;28;20016;-44
2021/05/10 08:06:46;;;;;;;1.00;0.90;;;35.30;33.60;;;;;;5114475;28;20042;-41
2021/05/10 08:09:12;;;;;;;2.00;1.05;;;35.60;33.00;;;;;;5113413;28;20506;-41
2021/05/10 08:11:39;;;;;;;1.15;1.00;;;36.30;32.80;;;;;;5114428;28;20027;-41
2021/05/10 08:14:05;;;;;;;2.33;1.13;;;37.10;32.40;;;;;;5114202;28;20023;-42
2021/05/10 08:16:30;;;;;;;2.40;1.30;;;36.50;31.90;;;;;;5114282;27;20023;-41
2021/05/10 08:18:56;;;;;;;4.30;1.50;;;35.80;32.20;;;;;;5114327;28;20065;-41
2021/05/10 08:21:21;;;;;;;4.65;1.70;;;35.70;32.60;;;;;;5114109;28;20039;-41
2021/05/10 08:23:47;;;;;;;3.47;1.73;;;36.00;32.20;;;;;;5113064;28;20259;-43
2021/05/10 08:26:12;;;;;;;3.63;1.50;;;35.70;32.20;;;;;;5114018;28;20114;-42
2021/05/10 08:28:38;;;;;;;1.75;1.20;;;35.50;32.70;;;;;;5113924;28;20031;-42
2021/05/10 08:31:04;;;;;;;3.65;1.10;;;35.00;32.90;;;;;;5113945;28;20015;-42
2021/05/10 08:33:30;;;;;;;1.60;1.23;;;34.50;33.20;;;;;;5113925;28;20031;-44
2021/05/10 08:35:56;;;;;;;2.17;1.42;;;34.10;33.60;;;;;;5113867;28;20027;-42
2021/05/10 08:38:22;;;;;;;2.72;1.42;;;33.80;34.10;;;;;;5112811;28;20023;-40
2021/05/10 08:40:50;;;;;;;2.00;1.20;;;33.60;34.20;;;;;;5113884;28;20050;-42
2021/05/10 08:43:21;;;;;;;1.77;1.05;;;34.00;34.20;;;;;;5107694;28;20035;-42
2021/05/10 08:45:54;;;;;;;2.70;1.27;;;34.80;34.00;;;;;;5093462;28;20024;-42
2021/05/10 08:48:21;;;;;;;2.67;1.05;;;35.80;33.40;;;;;;5093414;28;20020;-42
2021/05/10 08:50:47;;;;;;;1.30;1.05;;;36.50;33.30;;;;;;5095706;28;20429;-40
2021/05/10 08:53:13;;;;;;;2.90;1.25;;;36.80;32.70;;;;;;5112848;28;20267;-43
2021/05/10 08:55:39;;;;;;;2.97;1.50;;;37.00;32.30;;;;;;5113484;28;20090;-42
2021/05/10 08:58:07;;;;;;;4.57;1.67;;;36.70;32.50;;;;;;5113617;28;20054;-40
2021/05/10 09:00:33;;;;;;;1.42;1.30;;;36.20;32.50;;;;;;5113171;28;20023;-44
2021/05/10 09:03:10;;;;;;;3.88;1.40;;;36.30;33.00;;;;;;5113568;28;20107;-42
2021/05/10 09:05:50;;;;;;;1.92;1.20;;;36.50;32.60;;;;;;5113198;28;20114;-41
2021/05/10 09:08:16;;;;;;;3.08;1.20;;;35.60;32.50;;;;;;5112570;28;20049;-41
2021/05/10 09:11:01;;;;;;;1.88;0.88;;;35.20;33.50;;;;;;5113467;28;20027;-44
2021/05/10 09:13:34;;;;;;;2.42;1.85;;;35.90;33.70;;;;;;5113376;28;20654;-41
2021/05/10 09:16:04;;;;;;;4.10;1.63;;;36.30;32.50;;;;;;5113191;28;20088;-44
2021/05/10 09:18:30;;;;;;;1.35;1.10;;;36.40;32.50;;;;;;5113167;28;20028;-41
2021/05/10 09:21:12;;;;;;;2.75;1.50;;;36.30;32.90;;;;;;5113240;28;20490;-44
2021/05/10 09:23:39;;;;;;;1.45;1.20;;;35.70;33.10;;;;;;5112304;28;20024;-45
2021/05/10 09:26:05;;;;;;;2.53;1.42;;;36.00;33.10;;;;;;5112958;28;20150;-44
2021/05/10 09:28:39;;;;;;;1.50;1.08;;;36.20;32.90;;;;;;5113174;28;20098;-41
2021/05/10 09:31:07;;;;;;;3.58;1.25;;;36.10;32.40;;;;;;5113077;28;20107;-41
2021/05/10 09:33:35;;;;;;;2.22;1.52;;;34.60;33.30;;;;;;5113016;28;20024;-41
2021/05/10 09:36:06;;;;;;;2.75;1.30;;;33.90;34.20;;;;;;5113132;28;20368;-44
2021/05/10 09:38:37;;;;;;;3.63;1.90;;;33.90;34.50;;;;;;5112019;28;20110;-41
2021/05/10 09:41:07;;;;;;;3.28;1.40;;;33.80;34.70;;;;;;5111651;28;20027;-44
2021/05/10 09:43:35;;;;;;;5.40;1.63;;;33.70;34.80;;;;;;5104447;28;20110;-47
2021/05/10 09:46:12;;;;;;;6.40;1.77;;;33.70;35.00;;;;;;5092431;28;20036;-43
2021/05/10 09:48:39;;;;;;;2.03;1.50;;;33.40;34.90;;;;;;5092537;28;20031;-41
2021/05/10 09:51:07;;;;;;;3.08;1.35;;;33.40;35.10;;;;;;5097975;28;20071;-42
2021/05/10 09:53:55;;;;;;;2.15;1.38;;;33.20;34.80;;;;;;5111727;28;20734;-41
2021/05/10 09:58:53;;;;;;;1.90;1.40;;;31.70;36.10;;;;;;5112850;28;20495;-42
2021/05/10 10:01:19;;;;;;;1.90;1.50;;;30.80;36.80;;;;;;5112668;28;20463;-40
2021/05/10 10:03:57;;;;;;;3.05;1.42;;;29.90;37.80;;;;;;5112610;28;20032;-41
2021/05/10 10:06:23;;;;;;;2.28;1.48;;;29.50;38.50;;;;;;5111502;28;20385;-43
2021/05/10 10:08:50;;;;;;;1.58;1.20;;;29.10;39.50;;;;;;5111688;28;20454;-43
2021/05/10 10:11:20;;;;;;;3.22;1.55;;;28.70;40.00;;;;;;5112758;28;20024;-40
2021/05/10 10:13:47;;;;;;;3.72;1.70;;;28.30;41.00;;;;;;5116791;28;20054;-40
2021/05/10 10:16:14;;;;;;;5.85;1.58;;;28.10;41.10;;;;;;5116671;28;20106;-40
2021/05/10 10:18:41;;;;;;;3.03;1.88;;;27.70;41.30;;;;;;5115367;28;20024;-41
2021/05/10 10:21:09;;;;;;;3.45;1.65;;;27.40;41.70;;;;;;5116576;28;20031;-40
2021/05/10 10:23:36;;;;;;;2.78;1.48;;;27.30;42.00;;;;;;5115618;28;20059;-44
2021/05/10 10:26:05;;;;;;;1.95;1.27;;;27.10;42.50;;;;;;5116356;28;20024;-40
2021/05/10 10:28:34;;;;;;;3.28;1.48;;;26.90;42.60;;;;;;5116563;28;20069;-40
2021/05/10 10:31:02;;;;;;;1.40;1.30;;;26.60;43.10;;;;;;5116110;28;20070;-41
2021/05/10 10:33:47;;;;;;;1.52;1.30;;;26.40;43.30;;;;;;5116448;28;20374;-42
2021/05/10 10:36:24;;;;;;;3.92;1.70;;;26.20;44.20;;;;;;5116293;28;20042;-41
2021/05/10 10:39:10;;;;;;;3.00;1.33;;;26.20;44.60;;;;;;5115200;28;20051;-40
2021/05/10 10:41:55;;;;;;;3.08;1.70;;;26.20;44.50;;;;;;5116071;28;20027;-42
2021/05/10 10:44:32;;;;;;;6.50;1.90;;;26.30;44.40;;;;;;5101139;28;20055;-41
2021/05/10 10:46:58;;;;;;;2.30;1.52;;;26.40;44.20;;;;;;5095150;28;20514;-41
2021/05/10 10:49:41;;;;;;;3.03;1.65;;;26.40;43.90;;;;;;5094516;28;20032;-42
2021/05/10 10:52:23;;;;;;;2.20;1.27;;;26.40;43.70;;;;;;5094872;28;20491;-41
2021/05/10 10:55:15;;;;;;;2.38;1.33;;;26.30;44.30;;;;;;5094353;28;20028;-42
2021/05/10 10:57:41;;;;;;;2.10;1.25;;;26.30;44.20;;;;;;5095261;28;20395;-42
2021/05/10 11:00:08;;;;;;;2.63;1.50;;;26.30;43.90;;;;;;5095157;28;20028;-41
2021/05/10 11:02:43;;;;;;;2.47;1.20;;;26.40;43.80;;;;;;5095083;28;20107;-44
2021/05/10 11:05:20;;;;;;;2.50;1.40;;;26.40;44.20;;;;;;5094988;28;20065;-41
2021/05/10 11:07:51;;;;;;;3.20;1.45;;;26.50;43.90;;;;;;5094145;28;20067;-41
2021/05/10 11:10:51;;;;;;;3.67;1.58;;;26.60;43.90;;;;;;5095152;28;20497;-40
2021/05/10 11:13:26;;;;;;;3.55;1.58;;;26.60;43.50;;;;;;5095068;28;20020;-42
2021/05/10 11:15:53;;;;;;;3.03;1.52;;;26.70;43.80;;;;;;5094874;28;20032;-48
2021/05/10 11:18:38;;;;;;;1.83;1.23;;;26.70;43.60;;;;;;5094912;28;20036;-40
2021/05/10 11:21:06;;;;;;;2.72;1.48;;;26.70;43.80;;;;;;5094705;28;20379;-43
2021/05/10 11:23:33;;;;;;;1.67;1.10;;;26.80;43.90;;;;;;5092649;28;20558;-41
2021/05/10 11:26:01;;;;;;;1.30;1.20;;;26.80;43.50;;;;;;5094480;28;20031;-41
2021/05/10 11:28:30;;;;;;;2.85;1.52;;;26.80;43.70;;;;;;5094838;28;20047;-40
2021/05/10 11:31:00;;;;;;;1.55;1.38;;;26.90;43.90;;;;;;5094397;28;20481;-42
2021/05/10 11:33:50;;;;;;;2.00;1.50;;;26.80;43.70;;;;;;5094523;28;20141;-42
2021/05/10 11:36:37;;;;;;;1.88;1.40;;;26.80;44.20;;;;;;5094598;28;20107;-42
2021/05/10 11:39:09;;;;;;;;;;;26.80;44.00;;;;;;5094275;28;20112;-42
2021/05/10 11:41:41;;;;;;;2.08;1.45;;;26.80;44.40;;;;;;5094653;28;19904;-41
2021/05/10 11:44:08;;;;;;;5.30;1.60;;;26.80;44.70;;;;;;5094488;28;20107;-41
2021/05/10 11:46:37;;;;;;;2.97;1.60;;;26.70;44.20;;;;;;5094463;28;20047;-42
2021/05/10 11:49:04;;;;;;;1.40;1.15;;;26.70;44.40;;;;;;5094513;28;20026;-44
2021/05/10 11:51:34;;;;;;;4.18;1.60;;;26.60;44.20;;;;;;5084060;28;20102;-44
2021/05/10 11:54:04;;;;;;;1.75;1.35;;;26.60;44.50;;;;;;5073310;28;20028;-40
2021/05/10 11:56:33;;;;;;;1.63;1.35;;;26.60;44.90;;;;;;5073959;28;20017;-40
2021/05/10 11:59:07;;;;;;;3.92;1.55;;;26.60;44.40;;;;;;5074119;28;20024;-40
2021/05/10 12:01:34;;;;;;;1.85;1.23;;;26.70;44.80;;;;;;5074001;28;20040;-41
2021/05/10 12:04:35;;;;;;;2.25;1.58;;;27.00;44.00;;;;;;5074073;28;20033;-42
2021/05/10 12:07:00;;;;;;;6.30;1.48;;;27.10;43.70;;;;;;5073203;28;20044;-43
2021/05/10 12:09:40;;;;;;;3.35;1.75;;;27.10;43.70;;;;;;5073133;28;20533;-41
2021/05/10 12:12:20;;;;;;;4.97;1.55;;;27.10;43.60;;;;;;5072604;28;20050;-42
2021/05/10 12:14:53;;;;;;;3.13;1.33;;;27.10;43.80;;;;;;5073848;28;20028;-40
2021/05/10 12:17:25;;;;;;;1.15;1.05;;;27.10;44.20;;;;;;5073506;28;20496;-40
2021/05/10 12:19:56;;;;;;;1.63;1.25;;;27.10;44.20;;;;;;5073559;28;20035;-40
2021/05/10 12:22:29;;;;;;;2.25;1.67;;;27.20;44.60;;;;;;5072125;28;20032;-44
2021/05/10 12:25:03;;;;;;;1.35;1.25;;;27.30;43.70;;;;;;5072345;28;20032;-40
2021/05/10 12:27:36;;;;;;;5.32;1.73;;;27.20;43.60;;;;;;5073434;28;20048;-41
2021/05/10 12:30:04;;;;;;;1.92;1.48;;;27.20;43.40;;;;;;5073115;28;20498;-40
2021/05/10 12:32:30;;;;;;;7.05;1.70;;;27.20;43.70;;;;;;5073404;28;20119;-42
2021/05/10 12:34:57;;;;;;;3.03;1.27;;;27.30;43.20;;;;;;5072902;28;20391;-40
2021/05/10 12:37:23;;;;;;;1.33;1.23;;;27.30;43.50;;;;;;5073219;28;20028;-42
2021/05/10 12:40:04;;;;;;;2.45;1.50;;;27.30;43.80;;;;;;5072359;28;20052;-40
2021/05/10 12:42:29;;;;;;;6.18;1.40;;;27.20;44.30;;;;;;5073033;28;20078;-40
2021/05/10 12:45:00;;;;;;;1.67;1.20;;;27.30;44.30;;;;;;5092890;28;20031;-40
2021/05/10 12:47:46;;;;;;;1.98;1.40;;;27.30;44.60;;;;;;5093476;28;20056;-41
2021/05/10 12:50:13;;;;;;;;;;;27.40;43.20;;;;;;5093626;28;20029;-40
2021/05/10 12:52:50;;;;;;;1.42;1.15;;;27.50;43.60;;;;;;5110922;28;19903;-42
2021/05/10 12:55:21;;;;;;;2.65;1.23;;;27.60;43.30;;;;;;5113816;28;20020;-41
2021/05/10 12:57:48;;;;;;;3.15;1.58;;;27.60;43.20;;;;;;5113562;28;20042;-40
2021/05/10 13:00:30;;;;;;;2.75;1.35;;;27.70;42.80;;;;;;5113613;28;20023;-42